EDDR/SCN METAR and TAF weather

Enter ICAO airport designator
Station Type Date Time Source
EDDR METAR 2018/04/20 08:50 UTC NOAA

EDDR 200850Z 11006KT CAVOK 21/08 Q1024 NOSIG


Station Type Date Time Source
EDDR Decoded METAR 2018/04/20 08:50 UTC NOAA

Saarbruecken / Ensheim, Germany (EDDR) 49-13N 007-07E 320M
Apr 20, 2018 - 04:50 AM EDT / 2018.04.20 0850 UTC
Wind: from the ESE (110 degrees) at 7 MPH (6 KT):0
Visibility: greater than 7 mile(s):0
Temperature: 69 F (21 C)
Dew Point: 46 F (8 C)
Relative Humidity: 43%
Pressure (altimeter): 30.24 in. Hg (1024 hPa)
ob: EDDR 200850Z 11006KT CAVOK 21/08 Q1024 NOSIG
cycle: 9

Station Type Date Time Source
EDDR TAF 2018/04/20 06:27 UTC NOAA

TAF EDDR 200500Z 2006/2106 04004KT CAVOK


Example: see airport list